sensor_id;sensor_type;location;lat;lon;timestamp;temperature;humidity
20380;DHT22;10349;48.666;8.948;2022-08-24T00:01:00;17.10;99.90
20380;DHT22;10349;48.666;8.948;2022-08-24T00:03:25;17.00;99.90
20380;DHT22;10349;48.666;8.948;2022-08-24T00:05:52;16.90;99.90
20380;DHT22;10349;48.666;8.948;2022-08-24T00:08:18;16.80;99.90
20380;DHT22;10349;48.666;8.948;2022-08-24T00:10:44;16.80;99.90
20380;DHT22;10349;48.666;8.948;2022-08-24T00:13:10;16.80;99.90
20380;DHT22;10349;48.666;8.948;2022-08-24T00:15:36;16.70;99.90
20380;DHT22;10349;48.666;8.948;2022-08-24T00:18:02;16.70;99.90
20380;DHT22;10349;48.666;8.948;2022-08-24T00:20:28;16.70;99.90
20380;DHT22;10349;48.666;8.948;2022-08-24T00:22:54;16.70;99.90
20380;DHT22;10349;48.666;8.948;2022-08-24T00:25:20;16.60;99.90
20380;DHT22;10349;48.666;8.948;2022-08-24T00:27:46;16.50;99.90
20380;DHT22;10349;48.666;8.948;2022-08-24T00:30:14;16.40;99.90
20380;DHT22;10349;48.666;8.948;2022-08-24T00:32:42;16.40;99.90
20380;DHT22;10349;48.666;8.948;2022-08-24T00:35:08;16.30;99.90
20380;DHT22;10349;48.666;8.948;2022-08-24T00:37:35;16.30;99.90
20380;DHT22;10349;48.666;8.948;2022-08-24T00:40:06;16.30;99.90
20380;DHT22;10349;48.666;8.948;2022-08-24T00:42:32;16.20;99.90
20380;DHT22;10349;48.666;8.948;2022-08-24T00:44:58;16.20;99.90
20380;DHT22;10349;48.666;8.948;2022-08-24T00:47:27;16.20;99.90
20380;DHT22;10349;48.666;8.948;2022-08-24T00:49:59;16.10;99.90
20380;DHT22;10349;48.666;8.948;2022-08-24T00:55:07;16.10;99.90
20380;DHT22;10349;48.666;8.948;2022-08-24T00:57:38;16.00;99.90
20380;DHT22;10349;48.666;8.948;2022-08-24T01:00:18;16.00;99.90
20380;DHT22;10349;48.666;8.948;2022-08-24T01:02:46;16.00;99.90
20380;DHT22;10349;48.666;8.948;2022-08-24T01:05:13;15.90;99.90
20380;DHT22;10349;48.666;8.948;2022-08-24T01:07:41;15.90;99.90
20380;DHT22;10349;48.666;8.948;2022-08-24T01:10:12;15.90;99.90
20380;DHT22;10349;48.666;8.948;2022-08-24T01:12:42;15.90;99.90
20380;DHT22;10349;48.666;8.948;2022-08-24T01:15:10;15.90;99.90
20380;DHT22;10349;48.666;8.948;2022-08-24T01:17:36;15.90;99.90
20380;DHT22;10349;48.666;8.948;2022-08-24T01:20:21;15.80;99.90
20380;DHT22;10349;48.666;8.948;2022-08-24T01:23:01;15.80;99.90
20380;DHT22;10349;48.666;8.948;2022-08-24T01:25:32;15.80;99.90
20380;DHT22;10349;48.666;8.948;2022-08-24T01:28:04;15.80;99.90
20380;DHT22;10349;48.666;8.948;2022-08-24T01:30:31;15.80;99.90
20380;DHT22;10349;48.666;8.948;2022-08-24T01:33:00;15.70;99.90
20380;DHT22;10349;48.666;8.948;2022-08-24T01:35:27;15.70;99.90
20380;DHT22;10349;48.666;8.948;2022-08-24T01:37:54;15.70;99.90
20380;DHT22;10349;48.666;8.948;2022-08-24T01:40:24;15.70;99.90
20380;DHT22;10349;48.666;8.948;2022-08-24T01:42:52;15.60;99.90
20380;DHT22;10349;48.666;8.948;2022-08-24T01:45:20;15.60;99.90
20380;DHT22;10349;48.666;8.948;2022-08-24T01:47:46;15.60;99.90
20380;DHT22;10349;48.666;8.948;2022-08-24T01:50:12;15.60;99.90
20380;DHT22;10349;48.666;8.948;2022-08-24T01:52:40;15.50;99.90
20380;DHT22;10349;48.666;8.948;2022-08-24T01:55:08;15.50;99.90
20380;DHT22;10349;48.666;8.948;2022-08-24T01:57:34;15.50;99.90
20380;DHT22;10349;48.666;8.948;2022-08-24T02:00:02;15.40;99.90
20380;DHT22;10349;48.666;8.948;2022-08-24T02:02:39;15.40;99.90
20380;DHT22;10349;48.666;8.948;2022-08-24T02:05:07;15.40;99.90
20380;DHT22;10349;48.666;8.948;2022-08-24T02:07:34;15.30;99.90
20380;DHT22;10349;48.666;8.948;2022-08-24T02:10:00;15.30;99.90
20380;DHT22;10349;48.666;8.948;2022-08-24T02:12:26;15.20;99.90
20380;DHT22;10349;48.666;8.948;2022-08-24T02:14:51;15.20;99.90
20380;DHT22;10349;48.666;8.948;2022-08-24T02:17:17;15.10;99.90
20380;DHT22;10349;48.666;8.948;2022-08-24T02:19:45;15.10;99.90
20380;DHT22;10349;48.666;8.948;2022-08-24T02:22:11;15.00;99.90
20380;DHT22;10349;48.666;8.948;2022-08-24T02:24:37;15.00;99.90
20380;DHT22;10349;48.666;8.948;2022-08-24T02:27:03;15.00;99.90
20380;DHT22;10349;48.666;8.948;2022-08-24T02:29:30;15.00;99.90
20380;DHT22;10349;48.666;8.948;2022-08-24T02:31:56;15.00;99.90
20380;DHT22;10349;48.666;8.948;2022-08-24T02:34:22;14.90;99.90
20380;DHT22;10349;48.666;8.948;2022-08-24T02:36:48;14.90;99.90
20380;DHT22;10349;48.666;8.948;2022-08-24T02:39:15;14.90;99.90
20380;DHT22;10349;48.666;8.948;2022-08-24T02:41:43;14.90;99.90
20380;DHT22;10349;48.666;8.948;2022-08-24T02:44:10;14.90;99.90
20380;DHT22;10349;48.666;8.948;2022-08-24T02:46:35;14.90;99.90
20380;DHT22;10349;48.666;8.948;2022-08-24T02:49:03;14.90;99.90
20380;DHT22;10349;48.666;8.948;2022-08-24T02:51:31;14.90;99.90
20380;DHT22;10349;48.666;8.948;2022-08-24T02:53:59;14.80;99.90
20380;DHT22;10349;48.666;8.948;2022-08-24T02:56:27;14.70;99.90
20380;DHT22;10349;48.666;8.948;2022-08-24T02:58:55;14.70;99.90
20380;DHT22;10349;48.666;8.948;2022-08-24T03:01:21;14.70;99.90
20380;DHT22;10349;48.666;8.948;2022-08-24T03:03:47;14.70;99.90
20380;DHT22;10349;48.666;8.948;2022-08-24T03:06:13;14.70;99.90
20380;DHT22;10349;48.666;8.948;2022-08-24T03:08:39;14.70;99.90
20380;DHT22;10349;48.666;8.948;2022-08-24T03:11:06;14.70;99.90
20380;DHT22;10349;48.666;8.948;2022-08-24T03:13:33;14.70;99.90
20380;DHT22;10349;48.666;8.948;2022-08-24T03:15:59;14.70;99.90
20380;DHT22;10349;48.666;8.948;2022-08-24T03:18:26;14.60;99.90
20380;DHT22;10349;48.666;8.948;2022-08-24T03:20:53;14.60;99.90
20380;DHT22;10349;48.666;8.948;2022-08-24T03:23:19;14.60;99.90
20380;DHT22;10349;48.666;8.948;2022-08-24T03:25:45;14.60;99.90
20380;DHT22;10349;48.666;8.948;2022-08-24T03:28:11;14.60;99.90
20380;DHT22;10349;48.666;8.948;2022-08-24T03:30:39;14.50;99.90
20380;DHT22;10349;48.666;8.948;2022-08-24T03:33:05;14.60;99.90
20380;DHT22;10349;48.666;8.948;2022-08-24T03:35:32;14.50;99.90
20380;DHT22;10349;48.666;8.948;2022-08-24T03:37:59;14.40;99.90
20380;DHT22;10349;48.666;8.948;2022-08-24T03:40:25;14.30;99.90
20380;DHT22;10349;48.666;8.948;2022-08-24T03:42:54;14.30;99.90
20380;DHT22;10349;48.666;8.948;2022-08-24T03:45:21;14.30;99.90
20380;DHT22;10349;48.666;8.948;2022-08-24T03:47:48;14.30;99.90
20380;DHT22;10349;48.666;8.948;2022-08-24T03:50:14;14.20;99.90
20380;DHT22;10349;48.666;8.948;2022-08-24T03:52:40;14.20;99.90
20380;DHT22;10349;48.666;8.948;2022-08-24T03:55:08;14.20;99.90
20380;DHT22;10349;48.666;8.948;2022-08-24T03:57:34;14.20;99.90
20380;DHT22;10349;48.666;8.948;2022-08-24T04:00:00;14.20;99.90
20380;DHT22;10349;48.666;8.948;2022-08-24T04:02:26;14.20;99.90
20380;DHT22;10349;48.666;8.948;2022-08-24T04:04:52;14.10;99.90
20380;DHT22;10349;48.666;8.948;2022-08-24T04:07:18;14.10;99.90
20380;DHT22;10349;48.666;8.948;2022-08-24T04:09:44;14.10;99.90
20380;DHT22;10349;48.666;8.948;2022-08-24T04:12:10;14.10;99.90
20380;DHT22;10349;48.666;8.948;2022-08-24T04:14:35;14.00;99.90
20380;DHT22;10349;48.666;8.948;2022-08-24T04:17:08;14.00;99.90
20380;DHT22;10349;48.666;8.948;2022-08-24T04:19:39;14.00;99.90
20380;DHT22;10349;48.666;8.948;2022-08-24T04:22:27;14.00;99.90
20380;DHT22;10349;48.666;8.948;2022-08-24T04:24:54;13.90;99.90
20380;DHT22;10349;48.666;8.948;2022-08-24T04:27:19;13.90;99.90
20380;DHT22;10349;48.666;8.948;2022-08-24T04:29:45;13.90;99.90
20380;DHT22;10349;48.666;8.948;2022-08-24T04:32:11;13.90;99.90
20380;DHT22;10349;48.666;8.948;2022-08-24T04:34:40;13.90;99.90
20380;DHT22;10349;48.666;8.948;2022-08-24T04:37:06;13.90;99.90
20380;DHT22;10349;48.666;8.948;2022-08-24T04:39:33;13.90;99.90
20380;DHT22;10349;48.666;8.948;2022-08-24T04:42:16;13.90;99.90
20380;DHT22;10349;48.666;8.948;2022-08-24T04:44:43;13.90;99.90
20380;DHT22;10349;48.666;8.948;2022-08-24T04:47:09;13.90;99.90
20380;DHT22;10349;48.666;8.948;2022-08-24T04:49:38;13.90;99.90
20380;DHT22;10349;48.666;8.948;2022-08-24T04:52:04;13.90;99.90
20380;DHT22;10349;48.666;8.948;2022-08-24T04:54:31;13.90;99.90
20380;DHT22;10349;48.666;8.948;2022-08-24T04:57:09;13.90;99.90
20380;DHT22;10349;48.666;8.948;2022-08-24T04:59:35;13.90;99.90
20380;DHT22;10349;48.666;8.948;2022-08-24T05:02:00;13.90;99.90
20380;DHT22;10349;48.666;8.948;2022-08-24T05:04:26;13.90;99.90
20380;DHT22;10349;48.666;8.948;2022-08-24T05:06:52;13.90;99.90
20380;DHT22;10349;48.666;8.948;2022-08-24T05:09:18;14.00;99.90
20380;DHT22;10349;48.666;8.948;2022-08-24T05:11:44;14.00;99.90
20380;DHT22;10349;48.666;8.948;2022-08-24T05:14:12;14.00;99.90
20380;DHT22;10349;48.666;8.948;2022-08-24T05:16:39;13.90;99.90
20380;DHT22;10349;48.666;8.948;2022-08-24T05:19:05;13.90;99.90
20380;DHT22;10349;48.666;8.948;2022-08-24T05:21:32;13.90;99.90
20380;DHT22;10349;48.666;8.948;2022-08-24T05:23:58;13.90;99.90
20380;DHT22;10349;48.666;8.948;2022-08-24T05:26:27;13.90;99.90
20380;DHT22;10349;48.666;8.948;2022-08-24T05:28:59;14.00;99.90
20380;DHT22;10349;48.666;8.948;2022-08-24T05:31:32;14.00;99.90
20380;DHT22;10349;48.666;8.948;2022-08-24T05:34:03;14.10;99.90
20380;DHT22;10349;48.666;8.948;2022-08-24T05:36:32;14.10;99.90
20380;DHT22;10349;48.666;8.948;2022-08-24T05:38:59;14.20;99.90
20380;DHT22;10349;48.666;8.948;2022-08-24T05:41:26;14.30;99.90
20380;DHT22;10349;48.666;8.948;2022-08-24T05:43:59;14.30;99.90
20380;DHT22;10349;48.666;8.948;2022-08-24T05:46:26;14.30;99.90
20380;DHT22;10349;48.666;8.948;2022-08-24T05:48:53;14.30;99.90
20380;DHT22;10349;48.666;8.948;2022-08-24T05:51:28;14.40;99.90
20380;DHT22;10349;48.666;8.948;2022-08-24T05:53:59;14.50;99.90
20380;DHT22;10349;48.666;8.948;2022-08-24T05:56:32;14.50;99.90
20380;DHT22;10349;48.666;8.948;2022-08-24T05:58:59;14.60;99.90
20380;DHT22;10349;48.666;8.948;2022-08-24T06:01:25;14.70;99.90
20380;DHT22;10349;48.666;8.948;2022-08-24T06:03:53;14.80;99.90
20380;DHT22;10349;48.666;8.948;2022-08-24T06:06:20;14.80;99.90
20380;DHT22;10349;48.666;8.948;2022-08-24T06:08:49;14.90;99.90
20380;DHT22;10349;48.666;8.948;2022-08-24T06:11:23;15.00;99.90
20380;DHT22;10349;48.666;8.948;2022-08-24T06:13:56;15.10;99.90
20380;DHT22;10349;48.666;8.948;2022-08-24T06:16:23;15.20;99.90
20380;DHT22;10349;48.666;8.948;2022-08-24T06:18:52;15.30;99.90
20380;DHT22;10349;48.666;8.948;2022-08-24T06:21:22;15.40;99.90
20380;DHT22;10349;48.666;8.948;2022-08-24T06:23:49;15.40;99.90
20380;DHT22;10349;48.666;8.948;2022-08-24T06:26:17;15.50;99.90
20380;DHT22;10349;48.666;8.948;2022-08-24T06:29:02;15.60;99.90
20380;DHT22;10349;48.666;8.948;2022-08-24T06:31:29;15.70;99.90
20380;DHT22;10349;48.666;8.948;2022-08-24T06:33:55;15.70;99.90
20380;DHT22;10349;48.666;8.948;2022-08-24T06:36:21;15.80;99.90
20380;DHT22;10349;48.666;8.948;2022-08-24T06:38:47;15.90;99.90
20380;DHT22;10349;48.666;8.948;2022-08-24T06:41:15;16.00;99.90
20380;DHT22;10349;48.666;8.948;2022-08-24T06:43:40;16.10;99.90
20380;DHT22;10349;48.666;8.948;2022-08-24T06:46:10;16.20;99.90
20380;DHT22;10349;48.666;8.948;2022-08-24T06:48:40;16.30;99.90
20380;DHT22;10349;48.666;8.948;2022-08-24T06:51:11;16.40;99.90
20380;DHT22;10349;48.666;8.948;2022-08-24T06:53:38;16.50;99.90
20380;DHT22;10349;48.666;8.948;2022-08-24T06:56:06;16.50;99.90
20380;DHT22;10349;48.666;8.948;2022-08-24T06:58:33;16.70;99.90
20380;DHT22;10349;48.666;8.948;2022-08-24T07:01:20;16.80;99.90
20380;DHT22;10349;48.666;8.948;2022-08-24T07:03:48;16.90;99.90
20380;DHT22;10349;48.666;8.948;2022-08-24T07:06:36;17.10;99.90
20380;DHT22;10349;48.666;8.948;2022-08-24T07:09:03;17.30;99.90
20380;DHT22;10349;48.666;8.948;2022-08-24T07:11:30;17.40;99.90
20380;DHT22;10349;48.666;8.948;2022-08-24T07:13:57;17.60;99.90
20380;DHT22;10349;48.666;8.948;2022-08-24T07:16:23;17.70;99.90
20380;DHT22;10349;48.666;8.948;2022-08-24T07:18:52;17.90;99.90
20380;DHT22;10349;48.666;8.948;2022-08-24T07:21:20;18.10;99.90
20380;DHT22;10349;48.666;8.948;2022-08-24T07:23:54;18.20;99.90
20380;DHT22;10349;48.666;8.948;2022-08-24T07:26:22;18.30;99.90
20380;DHT22;10349;48.666;8.948;2022-08-24T07:28:51;18.50;99.90
20380;DHT22;10349;48.666;8.948;2022-08-24T07:31:18;18.60;99.90
20380;DHT22;10349;48.666;8.948;2022-08-24T07:33:52;18.70;99.90
20380;DHT22;10349;48.666;8.948;2022-08-24T07:36:18;18.90;99.90
20380;DHT22;10349;48.666;8.948;2022-08-24T07:38:44;19.00;99.90
20380;DHT22;10349;48.666;8.948;2022-08-24T07:41:12;19.20;99.90
20380;DHT22;10349;48.666;8.948;2022-08-24T07:43:40;19.30;99.90
20380;DHT22;10349;48.666;8.948;2022-08-24T07:46:06;19.40;99.90
20380;DHT22;10349;48.666;8.948;2022-08-24T07:48:33;19.50;99.90
20380;DHT22;10349;48.666;8.948;2022-08-24T07:51:08;19.70;99.90
20380;DHT22;10349;48.666;8.948;2022-08-24T07:53:34;19.80;99.90
20380;DHT22;10349;48.666;8.948;2022-08-24T07:56:00;20.00;99.90
20380;DHT22;10349;48.666;8.948;2022-08-24T07:58:25;20.10;99.90
20380;DHT22;10349;48.666;8.948;2022-08-24T08:00:51;20.10;99.90
20380;DHT22;10349;48.666;8.948;2022-08-24T08:03:17;20.30;99.90
20380;DHT22;10349;48.666;8.948;2022-08-24T08:05:44;20.40;99.90
20380;DHT22;10349;48.666;8.948;2022-08-24T08:08:09;20.60;99.90
20380;DHT22;10349;48.666;8.948;2022-08-24T08:10:37;20.70;99.90
20380;DHT22;10349;48.666;8.948;2022-08-24T08:13:05;20.80;99.90
20380;DHT22;10349;48.666;8.948;2022-08-24T08:15:31;20.90;99.90
20380;DHT22;10349;48.666;8.948;2022-08-24T08:18:09;21.10;99.90
20380;DHT22;10349;48.666;8.948;2022-08-24T08:20:38;21.30;99.90
20380;DHT22;10349;48.666;8.948;2022-08-24T08:23:05;21.50;99.90
20380;DHT22;10349;48.666;8.948;2022-08-24T08:25:59;21.60;99.90
20380;DHT22;10349;48.666;8.948;2022-08-24T08:28:38;21.90;99.90
20380;DHT22;10349;48.666;8.948;2022-08-24T08:31:06;22.00;99.90
20380;DHT22;10349;48.666;8.948;2022-08-24T08:33:32;22.20;99.90
20380;DHT22;10349;48.666;8.948;2022-08-24T08:36:06;22.30;99.90
20380;DHT22;10349;48.666;8.948;2022-08-24T08:38:33;22.40;99.90
20380;DHT22;10349;48.666;8.948;2022-08-24T08:41:05;22.80;99.90
20380;DHT22;10349;48.666;8.948;2022-08-24T08:43:40;23.20;99.90
20380;DHT22;10349;48.666;8.948;2022-08-24T08:52:22;23.80;99.90
20380;DHT22;10349;48.666;8.948;2022-08-24T08:57:48;24.20;99.90
20380;DHT22;10349;48.666;8.948;2022-08-24T09:09:15;24.70;99.90
20380;DHT22;10349;48.666;8.948;2022-08-24T09:12:03;24.70;99.90
20380;DHT22;10349;48.666;8.948;2022-08-24T09:20:49;25.10;99.90
20380;DHT22;10349;48.666;8.948;2022-08-24T09:26:17;25.10;99.90
20380;DHT22;10349;48.666;8.948;2022-08-24T09:29:15;25.10;99.90
20380;DHT22;10349;48.666;8.948;2022-08-24T09:32:11;25.30;99.90
20380;DHT22;10349;48.666;8.948;2022-08-24T09:35:07;25.20;99.90
20380;DHT22;10349;48.666;8.948;2022-08-24T09:59:50;25.70;99.90
20380;DHT22;10349;48.666;8.948;2022-08-24T10:05:29;25.70;99.90
20380;DHT22;10349;48.666;8.948;2022-08-24T10:16:51;26.00;99.50
20380;DHT22;10349;48.666;8.948;2022-08-24T10:22:01;26.20;97.60
20380;DHT22;10349;48.666;8.948;2022-08-24T10:31:06;26.50;97.40
20380;DHT22;10349;48.666;8.948;2022-08-24T10:51:18;27.00;95.90
20380;DHT22;10349;48.666;8.948;2022-08-24T10:53:50;27.10;95.30
20380;DHT22;10349;48.666;8.948;2022-08-24T10:56:29;27.20;95.70
20380;DHT22;10349;48.666;8.948;2022-08-24T10:59:21;27.30;96.20
20380;DHT22;10349;48.666;8.948;2022-08-24T11:04:29;27.50;96.40
20380;DHT22;10349;48.666;8.948;2022-08-24T11:09:52;27.70;95.60
20380;DHT22;10349;48.666;8.948;2022-08-24T11:12:40;27.70;95.70
20380;DHT22;10349;48.666;8.948;2022-08-24T11:17:59;28.00;95.90
20380;DHT22;10349;48.666;8.948;2022-08-24T11:20:40;28.10;96.10
20380;DHT22;10349;48.666;8.948;2022-08-24T11:23:19;28.00;96.10
20380;DHT22;10349;48.666;8.948;2022-08-24T11:26:05;27.90;95.80
20380;DHT22;10349;48.666;8.948;2022-08-24T11:28:46;28.00;95.90
20380;DHT22;10349;48.666;8.948;2022-08-24T11:31:38;28.00;95.50
20380;DHT22;10349;48.666;8.948;2022-08-24T11:34:07;28.20;95.10
20380;DHT22;10349;48.666;8.948;2022-08-24T11:36:36;28.30;94.80
20380;DHT22;10349;48.666;8.948;2022-08-24T11:39:20;28.30;95.00
20380;DHT22;10349;48.666;8.948;2022-08-24T11:41:52;28.20;94.60
20380;DHT22;10349;48.666;8.948;2022-08-24T11:44:38;28.30;94.70
20380;DHT22;10349;48.666;8.948;2022-08-24T11:47:28;28.20;93.90
20380;DHT22;10349;48.666;8.948;2022-08-24T11:49:59;28.20;93.90
20380;DHT22;10349;48.666;8.948;2022-08-24T11:52:51;28.10;94.40
20380;DHT22;10349;48.666;8.948;2022-08-24T11:55:26;28.20;94.30
20380;DHT22;10349;48.666;8.948;2022-08-24T11:58:00;28.30;94.30
20380;DHT22;10349;48.666;8.948;2022-08-24T12:00:37;28.40;94.20
20380;DHT22;10349;48.666;8.948;2022-08-24T12:06:07;28.30;95.20
20380;DHT22;10349;48.666;8.948;2022-08-24T12:08:42;28.30;95.80
20380;DHT22;10349;48.666;8.948;2022-08-24T12:14:22;28.20;94.30
20380;DHT22;10349;48.666;8.948;2022-08-24T12:16:59;28.10;94.90
20380;DHT22;10349;48.666;8.948;2022-08-24T12:19:36;28.00;95.40
20380;DHT22;10349;48.666;8.948;2022-08-24T12:22:06;28.10;95.30
20380;DHT22;10349;48.666;8.948;2022-08-24T12:24:49;28.10;95.30
20380;DHT22;10349;48.666;8.948;2022-08-24T12:27:31;28.10;95.00
20380;DHT22;10349;48.666;8.948;2022-08-24T12:30:07;28.30;95.30
20380;DHT22;10349;48.666;8.948;2022-08-24T12:32:44;28.50;94.80
20380;DHT22;10349;48.666;8.948;2022-08-24T12:35:34;28.40;95.00
20380;DHT22;10349;48.666;8.948;2022-08-24T12:38:20;28.30;95.30
20380;DHT22;10349;48.666;8.948;2022-08-24T12:40:57;28.30;95.90
20380;DHT22;10349;48.666;8.948;2022-08-24T12:43:37;28.50;95.80
20380;DHT22;10349;48.666;8.948;2022-08-24T12:46:04;28.50;95.00
20380;DHT22;10349;48.666;8.948;2022-08-24T12:48:47;28.70;94.90
20380;DHT22;10349;48.666;8.948;2022-08-24T12:51:20;28.80;94.10
20380;DHT22;10349;48.666;8.948;2022-08-24T12:59:23;29.20;93.50
20380;DHT22;10349;48.666;8.948;2022-08-24T13:20:25;29.00;92.80
20380;DHT22;10349;48.666;8.948;2022-08-24T13:33:55;29.40;92.80
20380;DHT22;10349;48.666;8.948;2022-08-24T13:44:48;29.90;92.00
20380;DHT22;10349;48.666;8.948;2022-08-24T13:50:26;29.80;92.10
20380;DHT22;10349;48.666;8.948;2022-08-24T13:56:24;29.80;91.40
20380;DHT22;10349;48.666;8.948;2022-08-24T14:01:42;29.60;90.40
20380;DHT22;10349;48.666;8.948;2022-08-24T14:07:17;29.60;90.50
20380;DHT22;10349;48.666;8.948;2022-08-24T14:15:18;29.50;91.30
20380;DHT22;10349;48.666;8.948;2022-08-24T14:21:42;29.20;91.00
20380;DHT22;10349;48.666;8.948;2022-08-24T14:23:47;29.10;91.10
20380;DHT22;10349;48.666;8.948;2022-08-24T14:40:02;29.00;91.20
20380;DHT22;10349;48.666;8.948;2022-08-24T14:42:37;29.20;91.40
20380;DHT22;10349;48.666;8.948;2022-08-24T14:48:03;29.50;90.70
20380;DHT22;10349;48.666;8.948;2022-08-24T14:50:39;29.50;90.40
20380;DHT22;10349;48.666;8.948;2022-08-24T14:53:48;29.60;90.30
20380;DHT22;10349;48.666;8.948;2022-08-24T14:59:54;29.30;91.20
20380;DHT22;10349;48.666;8.948;2022-08-24T15:05:35;29.50;91.60
20380;DHT22;10349;48.666;8.948;2022-08-24T15:07:34;29.40;91.80
20380;DHT22;10349;48.666;8.948;2022-08-24T15:10:08;29.20;92.30
20380;DHT22;10349;48.666;8.948;2022-08-24T15:12:36;29.10;92.90
20380;DHT22;10349;48.666;8.948;2022-08-24T15:15:29;29.00;92.10
20380;DHT22;10349;48.666;8.948;2022-08-24T15:26:26;29.10;91.10
20380;DHT22;10349;48.666;8.948;2022-08-24T15:28:53;29.20;91.10
20380;DHT22;10349;48.666;8.948;2022-08-24T15:31:23;29.30;91.00
20380;DHT22;10349;48.666;8.948;2022-08-24T15:33:52;29.30;91.30
20380;DHT22;10349;48.666;8.948;2022-08-24T15:36:19;29.20;91.80
20380;DHT22;10349;48.666;8.948;2022-08-24T15:38:45;29.10;92.20
20380;DHT22;10349;48.666;8.948;2022-08-24T15:41:15;29.00;92.50
20380;DHT22;10349;48.666;8.948;2022-08-24T15:44:04;29.00;92.90
20380;DHT22;10349;48.666;8.948;2022-08-24T15:46:52;29.00;92.60
20380;DHT22;10349;48.666;8.948;2022-08-24T15:49:25;29.10;92.30
20380;DHT22;10349;48.666;8.948;2022-08-24T15:55:00;29.30;93.20
20380;DHT22;10349;48.666;8.948;2022-08-24T15:57:30;29.10;93.90
20380;DHT22;10349;48.666;8.948;2022-08-24T16:00:12;28.90;93.70
20380;DHT22;10349;48.666;8.948;2022-08-24T16:02:39;28.70;94.10
20380;DHT22;10349;48.666;8.948;2022-08-24T16:18:11;28.40;95.70
20380;DHT22;10349;48.666;8.948;2022-08-24T16:20:37;28.40;96.10
20380;DHT22;10349;48.666;8.948;2022-08-24T16:23:26;28.40;96.20
20380;DHT22;10349;48.666;8.948;2022-08-24T16:26:22;28.50;96.30
20380;DHT22;10349;48.666;8.948;2022-08-24T16:28:50;28.30;96.40
20380;DHT22;10349;48.666;8.948;2022-08-24T16:31:49;28.20;96.80
20380;DHT22;10349;48.666;8.948;2022-08-24T16:36:47;27.90;97.50
20380;DHT22;10349;48.666;8.948;2022-08-24T16:39:13;27.90;97.80
20380;DHT22;10349;48.666;8.948;2022-08-24T16:41:40;27.80;97.80
20380;DHT22;10349;48.666;8.948;2022-08-24T16:44:06;27.70;98.00
20380;DHT22;10349;48.666;8.948;2022-08-24T16:46:33;27.70;98.40
20380;DHT22;10349;48.666;8.948;2022-08-24T16:48:59;27.70;98.50
20380;DHT22;10349;48.666;8.948;2022-08-24T16:51:25;27.60;98.70
20380;DHT22;10349;48.666;8.948;2022-08-24T16:53:51;27.70;98.80
20380;DHT22;10349;48.666;8.948;2022-08-24T16:56:16;27.60;99.10
20380;DHT22;10349;48.666;8.948;2022-08-24T16:58:44;27.40;98.90
20380;DHT22;10349;48.666;8.948;2022-08-24T17:01:10;27.30;99.20
20380;DHT22;10349;48.666;8.948;2022-08-24T17:03:35;27.10;99.50
20380;DHT22;10349;48.666;8.948;2022-08-24T17:06:01;27.00;99.70
20380;DHT22;10349;48.666;8.948;2022-08-24T17:08:27;27.00;99.90
20380;DHT22;10349;48.666;8.948;2022-08-24T17:10:53;27.00;99.90
20380;DHT22;10349;48.666;8.948;2022-08-24T17:13:20;26.90;99.90
20380;DHT22;10349;48.666;8.948;2022-08-24T17:15:45;26.80;99.90
20380;DHT22;10349;48.666;8.948;2022-08-24T17:18:12;26.70;99.90
20380;DHT22;10349;48.666;8.948;2022-08-24T17:20:38;26.80;99.90
20380;DHT22;10349;48.666;8.948;2022-08-24T17:23:05;26.80;99.90
20380;DHT22;10349;48.666;8.948;2022-08-24T17:25:30;26.80;99.90
20380;DHT22;10349;48.666;8.948;2022-08-24T17:27:57;26.80;99.90
20380;DHT22;10349;48.666;8.948;2022-08-24T17:30:24;26.80;99.90
20380;DHT22;10349;48.666;8.948;2022-08-24T17:32:51;26.80;99.90
20380;DHT22;10349;48.666;8.948;2022-08-24T17:35:18;26.70;99.90
20380;DHT22;10349;48.666;8.948;2022-08-24T17:37:45;26.50;99.90
20380;DHT22;10349;48.666;8.948;2022-08-24T17:40:15;26.30;99.90
20380;DHT22;10349;48.666;8.948;2022-08-24T17:42:41;26.30;99.90
20380;DHT22;10349;48.666;8.948;2022-08-24T17:45:07;26.20;99.90
20380;DHT22;10349;48.666;8.948;2022-08-24T17:47:33;26.20;99.90
20380;DHT22;10349;48.666;8.948;2022-08-24T17:50:00;26.10;99.90
20380;DHT22;10349;48.666;8.948;2022-08-24T17:52:27;26.10;99.90
20380;DHT22;10349;48.666;8.948;2022-08-24T17:54:52;26.10;99.90
20380;DHT22;10349;48.666;8.948;2022-08-24T17:57:21;26.10;99.90
20380;DHT22;10349;48.666;8.948;2022-08-24T17:59:48;26.00;99.90
20380;DHT22;10349;48.666;8.948;2022-08-24T18:02:15;26.00;99.90
20380;DHT22;10349;48.666;8.948;2022-08-24T18:04:41;26.00;99.90
20380;DHT22;10349;48.666;8.948;2022-08-24T18:07:10;26.00;99.90
20380;DHT22;10349;48.666;8.948;2022-08-24T18:09:41;25.80;99.90
20380;DHT22;10349;48.666;8.948;2022-08-24T18:12:08;25.80;99.90
20380;DHT22;10349;48.666;8.948;2022-08-24T18:14:34;25.70;99.90
20380;DHT22;10349;48.666;8.948;2022-08-24T18:17:05;25.70;99.90
20380;DHT22;10349;48.666;8.948;2022-08-24T18:19:32;25.60;99.90
20380;DHT22;10349;48.666;8.948;2022-08-24T18:21:58;25.60;99.90
20380;DHT22;10349;48.666;8.948;2022-08-24T18:24:27;25.60;99.90
20380;DHT22;10349;48.666;8.948;2022-08-24T18:27:11;25.50;99.90
20380;DHT22;10349;48.666;8.948;2022-08-24T18:29:40;25.30;99.90
20380;DHT22;10349;48.666;8.948;2022-08-24T18:32:07;25.30;99.90
20380;DHT22;10349;48.666;8.948;2022-08-24T18:34:33;25.20;99.90
20380;DHT22;10349;48.666;8.948;2022-08-24T18:36:59;25.10;99.90
20380;DHT22;10349;48.666;8.948;2022-08-24T18:39:25;25.10;99.90
20380;DHT22;10349;48.666;8.948;2022-08-24T18:41:51;25.00;99.90
20380;DHT22;10349;48.666;8.948;2022-08-24T18:44:20;25.00;99.90
20380;DHT22;10349;48.666;8.948;2022-08-24T18:46:47;24.90;99.90
20380;DHT22;10349;48.666;8.948;2022-08-24T18:49:16;24.90;99.90
20380;DHT22;10349;48.666;8.948;2022-08-24T18:51:43;24.80;99.90
20380;DHT22;10349;48.666;8.948;2022-08-24T18:54:22;24.80;99.90
20380;DHT22;10349;48.666;8.948;2022-08-24T18:56:49;24.70;99.90
20380;DHT22;10349;48.666;8.948;2022-08-24T18:59:17;24.70;99.90
20380;DHT22;10349;48.666;8.948;2022-08-24T19:01:44;24.70;99.90
20380;DHT22;10349;48.666;8.948;2022-08-24T19:04:29;24.60;99.90
20380;DHT22;10349;48.666;8.948;2022-08-24T19:06:55;24.50;99.90
20380;DHT22;10349;48.666;8.948;2022-08-24T19:09:21;24.50;99.90
20380;DHT22;10349;48.666;8.948;2022-08-24T19:11:46;24.40;99.90
20380;DHT22;10349;48.666;8.948;2022-08-24T19:14:13;24.30;99.90
20380;DHT22;10349;48.666;8.948;2022-08-24T19:16:39;24.30;99.90
20380;DHT22;10349;48.666;8.948;2022-08-24T19:19:05;24.20;99.90
20380;DHT22;10349;48.666;8.948;2022-08-24T19:21:33;24.20;99.90
20380;DHT22;10349;48.666;8.948;2022-08-24T19:24:02;24.10;99.90
20380;DHT22;10349;48.666;8.948;2022-08-24T19:26:29;24.10;99.90
20380;DHT22;10349;48.666;8.948;2022-08-24T19:28:55;24.10;99.90